Time;durP1;ratioP1;P1;durP2;ratioP2;P2;SDS_P1;SDS_P2;PMS_P1;PMS_P2;Temp;Humidity;BMP_temperature;BMP_pressure;BME280_temperature;BME280_humidity;BME280_pressure;Samples;Min_cycle;Max_cycle;Signal;HPM_P1;HPM_P2
2022/10/14 00:01:36;;;;;;;;;;;;;;;20.40;56.46;99514.00;7313493;19;129379;-38
2022/10/14 00:04:01;;;;;;;;;;;;;;;20.55;56.62;99529.16;7311425;19;129474;-37
2022/10/14 00:06:28;;;;;;;;;;;;;;;20.54;56.42;99537.16;7311906;19;130219;-37
2022/10/14 00:08:53;;;;;;;;;;;;;;;20.52;56.48;99526.84;7312306;19;129647;-37
2022/10/14 00:11:20;;;;;;;;;;;;;;;20.55;55.94;99528.34;7311902;19;128918;-37
2022/10/14 00:13:45;;;;;;;;;;;;;;;20.53;56.39;99525.84;7312012;19;129900;-38
2022/10/14 00:16:15;;;;;;;;;;;;;;;20.54;56.32;99531.91;7309270;19;131170;-38
2022/10/14 00:18:40;;;;;;;;;;;;;;;20.54;56.18;99530.13;7313666;19;129387;-37
2022/10/14 00:21:05;;;;;;;;;;;;;;;20.45;56.58;99512.66;7312437;19;129849;-36
2022/10/14 00:23:30;;;;;;;;;;;;;;;20.52;56.46;99531.22;7311769;19;129322;-37
2022/10/14 00:25:56;;;;;;;;;;;;;;;20.52;56.35;99526.00;7311566;19;129231;-37
2022/10/14 00:28:21;;;;;;;;;;;;;;;20.47;56.08;99509.91;7313022;19;129592;-37
2022/10/14 00:30:56;;;;;;;;;;;;;;;20.55;56.31;99528.34;7311481;19;129257;-37
2022/10/14 00:33:22;;;;;;;;;;;;;;;20.52;56.58;99528.59;7312520;19;129377;-37
2022/10/14 00:35:54;;;;;;;;;;;;;;;20.43;56.10;99511.13;7312007;19;130221;-38
2022/10/14 00:38:19;;;;;;;;;;;;;;;20.52;56.12;99528.59;7313112;19;129876;-37
2022/10/14 00:40:44;;;;;;;;;;;;;;;20.44;56.54;99510.19;7312480;19;129698;-36
2022/10/14 00:43:12;;;;;;;;;;;;;;;20.52;56.27;99519.00;7312139;19;128812;-37
2022/10/14 00:45:37;;;;;;;;;;;;;;;20.54;56.43;99530.13;7312251;19;130953;-38
2022/10/14 00:48:02;;;;;;;;;;;;;;;20.55;55.83;99530.94;7313015;19;129515;-37
2022/10/14 00:50:27;;;;;;;;;;;;;;;20.56;56.35;99524.78;7313007;19;129050;-38
2022/10/14 00:52:54;;;;;;;;;;;;;;;20.52;56.23;99528.59;7311271;19;129705;-37
2022/10/14 00:55:20;;;;;;;;;;;;;;;20.54;56.00;99524.09;7312388;19;130096;-37
2022/10/14 00:57:45;;;;;;;;;;;;;;;20.55;56.11;99528.34;7309738;19;129635;-37
2022/10/14 01:00:14;;;;;;;;;;;;;;;20.51;56.11;99519.94;7313249;19;129256;-37
2022/10/14 01:02:40;;;;;;;;;;;;;;;20.52;56.51;99520.78;7313018;19;130066;-37
2022/10/14 01:05:07;;;;;;;;;;;;;;;20.51;56.60;99521.75;7312659;19;129381;-37
2022/10/14 01:07:37;;;;;;;;;;;;;;;20.54;55.96;99517.06;7312708;19;131404;-37
2022/10/14 01:10:21;;;;;;;;;;;;;;;20.54;56.05;99516.25;7311763;19;129250;-37
2022/10/14 01:12:52;;;;;;;;;;;;;;;20.51;56.55;99521.75;7309670;19;129617;-37
2022/10/14 01:15:30;;;;;;;;;;;;;;;20.43;55.80;99508.50;7311724;19;129788;-38
2022/10/14 01:18:10;;;;;;;;;;;;;;;20.49;56.68;99519.25;7312745;19;129832;-38
2022/10/14 01:20:44;;;;;;;;;;;;;;;20.51;56.01;99522.56;7311937;19;129009;-36
2022/10/14 01:23:28;;;;;;;;;;;;;;;20.42;56.29;99512.09;7311174;19;129129;-38
2022/10/14 01:26:02;;;;;;;;;;;;;;;20.52;56.45;99528.59;7311414;19;129240;-37
2022/10/14 01:28:34;;;;;;;;;;;;;;;20.53;56.48;99525.84;7311517;19;129152;-38
2022/10/14 01:31:01;;;;;;;;;;;;;;;20.45;56.29;99511.81;7310578;19;129776;-36
2022/10/14 01:33:30;;;;;;;;;;;;;;;20.42;56.40;99502.47;7310984;19;129427;-38
2022/10/14 01:36:14;;;;;;;;;;;;;;;20.45;56.68;99507.44;7309489;19;130771;-37
2022/10/14 01:38:46;;;;;;;;;;;;;;;20.41;56.29;99494.78;7311138;19;131614;-36
2022/10/14 01:41:17;;;;;;;;;;;;;;;20.47;56.31;99517.75;7310518;19;128795;-38
2022/10/14 01:43:45;;;;;;;;;;;;;;;20.51;56.15;99521.75;7311036;19;129242;-38
2022/10/14 01:46:11;;;;;;;;;;;;;;;20.52;56.02;99518.16;7311639;19;129506;-38
2022/10/14 01:48:40;;;;;;;;;;;;;;;20.52;56.03;99518.16;7310457;19;129593;-38
2022/10/14 01:51:11;;;;;;;;;;;;;;;20.52;56.40;99513.78;7309071;19;129018;-37
2022/10/14 01:53:41;;;;;;;;;;;;;;;20.53;56.82;99506.75;7308014;19;129234;-38
2022/10/14 01:56:08;;;;;;;;;;;;;;;20.50;56.17;99499.19;7310277;19;129191;-38
2022/10/14 01:58:34;;;;;;;;;;;;;;;20.52;56.80;99508.56;7310517;19;130133;-38
2022/10/14 02:01:03;;;;;;;;;;;;;;;20.55;56.60;99503.06;7311048;19;131174;-37
2022/10/14 02:03:45;;;;;;;;;;;;;;;20.53;56.47;99502.34;7308807;19;129817;-38
2022/10/14 02:06:31;;;;;;;;;;;;;;;20.46;56.90;99492.59;7309490;19;130269;-37
2022/10/14 02:09:01;;;;;;;;;;;;;;;20.50;56.87;99499.19;7309315;19;129739;-37
2022/10/14 02:11:30;;;;;;;;;;;;;;;20.50;56.95;99499.19;7309937;19;129121;-35
2022/10/14 02:14:02;;;;;;;;;;;;;;;20.53;56.78;99498.91;7308120;19;130724;-38
2022/10/14 02:16:45;;;;;;;;;;;;;;;20.44;56.81;99484.06;7309008;19;129219;-35
2022/10/14 02:19:29;;;;;;;;;;;;;;;20.50;56.72;99497.41;7308569;19;129778;-38
2022/10/14 02:22:09;;;;;;;;;;;;;;;20.55;56.47;99497.00;7309553;19;130381;-38
2022/10/14 02:24:37;;;;;;;;;;;;;;;20.54;57.01;99490.13;7309437;19;129798;-38
2022/10/14 02:27:04;;;;;;;;;;;;;;;20.53;56.80;99488.47;7308955;19;129972;-37
2022/10/14 02:29:30;;;;;;;;;;;;;;;20.43;56.57;99467.56;7310036;19;129788;-37
2022/10/14 02:31:57;;;;;;;;;;;;;;;20.51;56.42;99485.19;7306899;19;129568;-37
2022/10/14 02:34:23;;;;;;;;;;;;;;;20.47;57.18;99483.78;7310286;19;129011;-37
2022/10/14 02:36:49;;;;;;;;;;;;;;;20.50;56.77;99488.75;7306816;19;129076;-37
2022/10/14 02:39:19;;;;;;;;;;;;;;;20.37;57.35;99464.66;7308825;19;129275;-38
2022/10/14 02:41:44;;;;;;;;;;;;;;;20.52;56.52;99477.22;7308367;19;129621;-38
2022/10/14 02:44:09;;;;;;;;;;;;;;;20.54;56.84;99474.47;7309880;19;129766;-37
2022/10/14 02:46:37;;;;;;;;;;;;;;;20.53;57.05;99473.63;7308852;19;131224;-38
2022/10/14 02:49:02;;;;;;;;;;;;;;;20.52;56.67;99468.53;7307491;19;129203;-37
2022/10/14 02:51:28;;;;;;;;;;;;;;;20.52;56.43;99479.00;7307868;19;129110;-38
2022/10/14 02:53:53;;;;;;;;;;;;;;;20.50;57.06;99473.06;7308654;19;128947;-37
2022/10/14 02:56:18;;;;;;;;;;;;;;;20.54;57.17;99467.44;7308156;19;131399;-37
2022/10/14 02:58:44;;;;;;;;;;;;;;;20.51;56.79;99474.75;7309011;19;130272;-38
2022/10/14 03:01:09;;;;;;;;;;;;;;;20.51;56.73;99474.75;7309179;19;129640;-37
2022/10/14 03:03:34;;;;;;;;;;;;;;;20.53;56.96;99478.00;7307511;19;129471;-37
2022/10/14 03:05:59;;;;;;;;;;;;;;;20.57;56.65;99476.81;7308106;19;130149;-37
2022/10/14 03:08:25;;;;;;;;;;;;;;;20.55;57.09;99476.09;7309590;19;130415;-37
2022/10/14 03:10:50;;;;;;;;;;;;;;;20.56;56.66;99473.34;7305514;19;130098;-37
2022/10/14 03:13:15;;;;;;;;;;;;;;;20.52;56.96;99471.16;7307736;19;129382;-37
2022/10/14 03:15:41;;;;;;;;;;;;;;;20.57;57.00;99474.19;7306919;19;129325;-38
2022/10/14 03:18:06;;;;;;;;;;;;;;;20.53;56.52;99467.56;7308242;19;130862;-38
2022/10/14 03:20:31;;;;;;;;;;;;;;;20.51;56.43;99464.28;7307798;19;129396;-38
2022/10/14 03:22:56;;;;;;;;;;;;;;;20.54;56.40;99471.84;7314495;19;128973;-36
2022/10/14 03:25:23;;;;;;;;;;;;;;;20.56;57.25;99467.31;7315550;19;129099;-38
2022/10/14 03:27:48;;;;;;;;;;;;;;;20.53;56.89;99470.19;7314058;19;130540;-37
2022/10/14 03:30:13;;;;;;;;;;;;;;;20.52;57.24;99460.72;7316095;19;129461;-37
2022/10/14 03:32:38;;;;;;;;;;;;;;;20.53;57.27;99459.72;7312352;19;130020;-37
2022/10/14 03:35:04;;;;;;;;;;;;;;;20.50;56.89;99462.63;7314631;19;129558;-37
2022/10/14 03:37:29;;;;;;;;;;;;;;;20.47;56.59;99462.91;7314374;19;129361;-37
2022/10/14 03:39:54;;;;;;;;;;;;;;;20.42;56.64;99446.81;7313642;19;129550;-37
2022/10/14 03:42:20;;;;;;;;;;;;;;;20.55;56.80;99460.44;7314727;19;129683;-37
2022/10/14 03:44:45;;;;;;;;;;;;;;;20.55;56.83;99465.66;7315467;19;128990;-38
2022/10/14 03:47:10;;;;;;;;;;;;;;;20.54;56.56;99464.00;7310964;19;130996;-37
2022/10/14 03:49:35;;;;;;;;;;;;;;;20.52;56.88;99460.72;7313498;19;129106;-37
2022/10/14 03:52:01;;;;;;;;;;;;;;;20.50;56.89;99458.25;7312249;19;128924;-38
2022/10/14 03:54:26;;;;;;;;;;;;;;;20.52;57.19;99455.47;7315918;19;129298;-37
2022/10/14 03:56:51;;;;;;;;;;;;;;;20.44;56.68;99445.69;7311269;19;129691;-38
2022/10/14 03:59:16;;;;;;;;;;;;;;;20.54;56.94;99441.31;7314086;19;130581;-38
2022/10/14 04:01:42;;;;;;;;;;;;;;;20.54;56.58;99453.56;7313932;19;128989;-37
2022/10/14 04:04:07;;;;;;;;;;;;;;;20.54;57.03;99446.53;7313297;19;129571;-38
2022/10/14 04:06:32;;;;;;;;;;;;;;;20.56;57.24;99443.81;7312257;19;130306;-38
2022/10/14 04:08:57;;;;;;;;;;;;;;;20.47;57.53;99428.94;7314663;19;129391;-38
2022/10/14 04:11:23;;;;;;;;;;;;;;;20.59;57.26;99440.94;7311428;19;129298;-38
2022/10/14 04:13:48;;;;;;;;;;;;;;;20.63;56.73;99437.06;7312780;19;129918;-37
2022/10/14 04:16:13;;;;;;;;;;;;;;;20.59;56.56;99440.94;7309855;19;129740;-37
2022/10/14 04:18:38;;;;;;;;;;;;;;;20.59;56.71;99435.72;7314431;19;129529;-37
2022/10/14 04:21:09;;;;;;;;;;;;;;;20.56;57.25;99430.75;7314944;19;129422;-38
2022/10/14 04:23:35;;;;;;;;;;;;;;;20.55;56.35;99429.09;7312159;19;130080;-37
2022/10/14 04:26:04;;;;;;;;;;;;;;;20.57;56.62;99427.19;7311300;19;129908;-37
2022/10/14 04:28:29;;;;;;;;;;;;;;;20.57;57.17;99432.41;7312088;19;129612;-38
2022/10/14 04:30:55;;;;;;;;;;;;;;;20.55;56.55;99432.53;7310674;19;129894;-37
2022/10/14 04:33:20;;;;;;;;;;;;;;;20.58;56.73;99432.25;7308409;19;129384;-37
2022/10/14 04:35:45;;;;;;;;;;;;;;;20.57;57.13;99429.78;7311008;19;130365;-38
2022/10/14 04:38:10;;;;;;;;;;;;;;;20.56;56.77;99426.34;7312650;19;128945;-37
2022/10/14 04:40:36;;;;;;;;;;;;;;;20.54;56.97;99432.69;7310039;19;130664;-37
2022/10/14 04:43:01;;;;;;;;;;;;;;;20.57;56.74;99429.78;7311594;19;130925;-37
2022/10/14 04:45:26;;;;;;;;;;;;;;;20.45;57.13;99412.59;7311496;19;129622;-38
2022/10/14 04:47:51;;;;;;;;;;;;;;;20.50;57.28;99426.91;7311983;19;129017;-37
2022/10/14 04:50:17;;;;;;;;;;;;;;;20.38;57.01;99406.25;7309911;19;129517;-38
2022/10/14 04:52:42;;;;;;;;;;;;;;;20.51;56.96;99432.97;7308104;19;129653;-37
2022/10/14 04:55:08;;;;;;;;;;;;;;;20.54;57.30;99427.44;7310821;19;129878;-37
2022/10/14 04:57:34;;;;;;;;;;;;;;;20.52;57.15;99424.16;7312071;19;129812;-38
2022/10/14 04:59:59;;;;;;;;;;;;;;;20.55;57.32;99423.88;7309804;19;129897;-38
2022/10/14 05:02:24;;;;;;;;;;;;;;;20.54;57.42;99423.03;7310283;19;129652;-38
2022/10/14 05:04:49;;;;;;;;;;;;;;;20.54;56.48;99422.22;7312138;19;129824;-38
2022/10/14 05:07:15;;;;;;;;;;;;;;;20.53;57.12;99421.41;7309648;19;129314;-36
2022/10/14 05:09:40;;;;;;;;;;;;;;;20.51;57.39;99415.47;7310414;19;129287;-39
2022/10/14 05:12:06;;;;;;;;;;;;;;;20.53;57.02;99415.34;7308596;19;130066;-37
2022/10/14 05:14:31;;;;;;;;;;;;;;;20.42;57.41;99392.81;7311110;19;129237;-38
2022/10/14 05:16:56;;;;;;;;;;;;;;;20.56;57.01;99415.09;7310776;19;129260;-37
2022/10/14 05:19:21;;;;;;;;;;;;;;;20.38;56.42;99394.03;7310347;19;130230;-37
2022/10/14 05:21:47;;;;;;;;;;;;;;;20.47;56.81;99415.91;7295412;19;130782;-39
2022/10/14 05:24:12;;;;;;;;;;;;;;;20.51;57.53;99412.06;7296272;19;130534;-38
2022/10/14 05:26:37;;;;;;;;;;;;;;;20.53;56.79;99418.78;7300599;19;129676;-38
2022/10/14 05:29:03;;;;;;;;;;;;;;;20.50;57.30;99407.78;7303884;19;130032;-36
2022/10/14 05:31:28;;;;;;;;;;;;;;;20.51;57.14;99412.06;7300638;19;130124;-41
2022/10/14 05:33:54;;;;;;;;;;;;;;;20.52;56.57;99413.69;7300979;19;131165;-38
2022/10/14 05:36:19;;;;;;;;;;;;;;;20.53;56.78;99415.34;7302973;19;130262;-40
2022/10/14 05:38:44;;;;;;;;;;;;;;;20.53;56.86;99415.34;7296856;19;131544;-37
2022/10/14 05:41:09;;;;;;;;;;;;;;;20.43;57.28;99398.84;7299321;19;130879;-36
2022/10/14 05:43:35;;;;;;;;;;;;;;;20.55;55.99;99423.88;7300736;19;131070;-37
2022/10/14 05:46:00;;;;;;;;;;;;;;;20.58;57.37;99413.97;7302265;19;129616;-40
2022/10/14 05:48:25;;;;;;;;;;;;;;;20.58;56.80;99413.13;7302917;19;130364;-36
2022/10/14 05:50:50;;;;;;;;;;;;;;;20.59;57.34;99420.03;7301217;19;129526;-40
2022/10/14 05:53:16;;;;;;;;;;;;;;;20.59;56.65;99415.63;7303580;19;131141;-37
2022/10/14 05:55:41;;;;;;;;;;;;;;;20.58;57.15;99413.13;7308476;19;128987;-40
2022/10/14 05:58:06;;;;;;;;;;;;;;;20.56;56.77;99415.09;7306643;19;129294;-39
2022/10/14 06:00:32;;;;;;;;;;;;;;;20.55;56.42;99418.66;7309686;19;130173;-37
2022/10/14 06:02:57;;;;;;;;;;;;;;;20.58;56.65;99419.19;7308412;19;129275;-40
2022/10/14 06:05:23;;;;;;;;;;;;;;;20.59;56.77;99410.38;7309525;19;129070;-39
2022/10/14 06:07:48;;;;;;;;;;;;;;;20.55;57.26;99423.88;7309309;19;128968;-38
2022/10/14 06:10:13;;;;;;;;;;;;;;;20.54;56.50;99423.03;7308897;19;129572;-40
2022/10/14 06:12:38;;;;;;;;;;;;;;;20.57;56.75;99421.94;7308213;19;131779;-36
2022/10/14 06:15:04;;;;;;;;;;;;;;;20.57;56.80;99424.56;7309640;19;129506;-37
2022/10/14 06:17:29;;;;;;;;;;;;;;;20.53;56.79;99420.56;7308269;19;129332;-39
2022/10/14 06:19:54;;;;;;;;;;;;;;;20.56;56.97;99420.31;7309740;19;129646;-38
2022/10/14 06:22:20;;;;;;;;;;;;;;;20.52;56.49;99424.16;7307348;19;130213;-39
2022/10/14 06:24:45;;;;;;;;;;;;;;;20.45;56.61;99415.19;7308643;19;129094;-36
2022/10/14 06:27:10;;;;;;;;;;;;;;;20.54;56.77;99424.84;7307383;19;129821;-38
2022/10/14 06:29:38;;;;;;;;;;;;;;;20.53;56.77;99425.78;7308977;19;130785;-39
2022/10/14 06:32:04;;;;;;;;;;;;;;;20.52;56.63;99424.16;7307811;19;129623;-38
2022/10/14 06:34:30;;;;;;;;;;;;;;;20.42;56.58;99412.88;7310373;19;129379;-38
2022/10/14 06:36:55;;;;;;;;;;;;;;;20.51;57.20;99418.09;7304740;19;129647;-37
2022/10/14 06:39:20;;;;;;;;;;;;;;;20.55;57.47;99423.88;7294308;19;129914;-38
2022/10/14 06:41:45;;;;;;;;;;;;;;;20.55;56.65;99422.09;7299589;19;129731;-38
2022/10/14 06:44:10;;;;;;;;;;;;;;;20.53;56.98;99417.94;7308585;19;129551;-37
2022/10/14 06:46:36;;;;;;;;;;;;;;;20.58;56.67;99426.19;7304655;19;129473;-39
2022/10/14 06:49:01;;;;;;;;;;;;;;;20.53;57.12;99425.78;7307470;19;130277;-41
2022/10/14 06:51:26;;;;;;;;;;;;;;;20.57;57.56;99421.94;7306941;19;130827;-39
2022/10/14 06:53:52;;;;;;;;;;;;;;;20.53;57.25;99431.00;7306629;19;129798;-38
2022/10/14 06:56:17;;;;;;;;;;;;;;;20.57;57.48;99432.41;7307662;19;128947;-39
2022/10/14 06:58:42;;;;;;;;;;;;;;;20.55;57.40;99429.94;7307821;19;130237;-40
2022/10/14 07:01:08;;;;;;;;;;;;;;;20.59;57.17;99426.06;7315537;19;129671;-39
2022/10/14 07:03:35;;;;;;;;;;;;;;;20.54;57.40;99430.06;7314202;19;128922;-38
2022/10/14 07:06:01;;;;;;;;;;;;;;;20.54;57.03;99424.84;7314713;19;129225;-38
2022/10/14 07:08:27;;;;;;;;;;;;;;;20.55;57.56;99429.09;7313260;19;129176;-40
2022/10/14 07:10:52;;;;;;;;;;;;;;;20.54;56.87;99430.06;7314973;19;129157;-39
2022/10/14 07:13:17;;;;;;;;;;;;;;;20.55;57.44;99435.16;7312405;19;129206;-39
2022/10/14 07:15:46;;;;;;;;;;;;;;;20.57;56.90;99432.41;7315218;19;129338;-39
2022/10/14 07:18:11;;;;;;;;;;;;;;;20.53;57.23;99431.00;7315339;19;131243;-40
2022/10/14 07:20:36;;;;;;;;;;;;;;;20.51;57.68;99438.19;7314200;19;129125;-38
2022/10/14 07:23:01;;;;;;;;;;;;;;;20.53;57.59;99436.22;7308094;19;130384;-39
2022/10/14 07:25:27;;;;;;;;;;;;;;;20.49;57.12;99438.28;7311664;19;130476;-38
2022/10/14 07:27:52;;;;;;;;;;;;;;;20.46;57.10;99424.69;7314661;19;130254;-40
2022/10/14 07:30:18;;;;;;;;;;;;;;;20.57;57.61;99437.63;7309652;19;131059;-39
2022/10/14 07:32:43;;;;;;;;;;;;;;;20.56;57.53;99441.22;7313911;19;129285;-39
2022/10/14 07:35:08;;;;;;;;;;;;;;;20.53;56.84;99436.22;7311559;19;130016;-36
2022/10/14 07:37:34;;;;;;;;;;;;;;;20.46;57.12;99419.47;7312183;19;130146;-39
2022/10/14 07:39:59;;;;;;;;;;;;;;;20.57;57.59;99441.06;7312340;19;129607;-38
2022/10/14 07:42:24;;;;;;;;;;;;;;;20.57;56.80;99442.84;7313798;19;129114;-39
2022/10/14 07:44:52;;;;;;;;;;;;;;;20.58;56.98;99444.47;7313195;19;129686;-39
2022/10/14 07:47:18;;;;;;;;;;;;;;;20.57;57.36;99442.84;7308607;19;129670;-40
2022/10/14 07:49:43;;;;;;;;;;;;;;;20.56;57.53;99442.00;7314319;19;130944;-39
2022/10/14 07:52:08;;;;;;;;;;;;;;;20.45;56.99;99439.53;7310265;19;129315;-38
2022/10/14 07:54:33;;;;;;;;;;;;;;;20.51;57.41;99453.84;7311577;19;129685;-38
2022/10/14 07:56:59;;;;;;;;;;;;;;;20.50;57.67;99446.97;7301083;19;130174;-40
2022/10/14 07:59:24;;;;;;;;;;;;;;;20.57;57.26;99442.84;7311680;19;131625;-39
2022/10/14 08:01:50;;;;;;;;;;;;;;;20.56;57.34;99452.47;7314501;19;129084;-38
2022/10/14 08:04:16;;;;;;;;;;;;;;;20.53;57.33;99450.13;7313447;19;129597;-38
2022/10/14 08:06:41;;;;;;;;;;;;;;;20.56;57.56;99451.66;7308739;19;130877;-40
2022/10/14 08:09:08;;;;;;;;;;;;;;;20.52;57.61;99460.72;7312710;19;130287;-38
2022/10/14 08:11:33;;;;;;;;;;;;;;;20.52;57.54;99461.53;7312682;19;130047;-39
2022/10/14 08:13:59;;;;;;;;;;;;;;;20.51;57.49;99459.06;7313758;19;129585;-38
2022/10/14 08:16:29;;;;;;;;;;;;;;;20.51;57.36;99464.28;7312107;19;130073;-38
2022/10/14 08:18:55;;;;;;;;;;;;;;;20.48;57.39;99464.53;7314415;19;132010;-38
2022/10/14 08:21:20;;;;;;;;;;;;;;;20.52;57.80;99460.72;7310284;19;129360;-37
2022/10/14 08:23:46;;;;;;;;;;;;;;;20.55;57.36;99461.25;7310430;19;129600;-40
2022/10/14 08:26:21;;;;;;;;;;;;;;;20.53;56.96;99454.50;7310524;19;130046;-38
2022/10/14 08:28:48;;;;;;;;;;;;;;;20.64;57.02;99444.75;7312296;19;130436;-39
2022/10/14 08:31:13;;;;;;;;;;;;;;;20.49;57.39;99434.88;7310493;19;129703;-39
2022/10/14 08:33:38;;;;;;;;;;;;;;;20.58;57.36;99449.72;7310738;19;129443;-39
2022/10/14 08:36:04;;;;;;;;;;;;;;;20.58;57.31;99449.72;7312264;19;130236;-39
2022/10/14 08:38:29;;;;;;;;;;;;;;;20.59;57.50;99446.94;7312370;19;131570;-38
2022/10/14 08:40:54;;;;;;;;;;;;;;;20.58;57.10;99447.09;7312762;19;129548;-41
2022/10/14 08:43:22;;;;;;;;;;;;;;;20.54;57.35;99438.72;7312421;19;129117;-40
2022/10/14 08:45:51;;;;;;;;;;;;;;;20.57;58.17;99445.47;7310375;19;130060;-39
2022/10/14 08:48:19;;;;;;;;;;;;;;;20.59;57.76;99448.75;7311850;19;130517;-38
2022/10/14 08:50:52;;;;;;;;;;;;;;;20.55;57.56;99449.97;7311061;19;129688;-36
2022/10/14 08:53:17;;;;;;;;;;;;;;;20.54;57.78;99443.13;7310328;19;129681;-38
2022/10/14 08:55:45;;;;;;;;;;;;;;;20.49;58.04;99429.66;7299280;19;131653;-38
2022/10/14 08:58:13;;;;;;;;;;;;;;;20.57;57.54;99443.69;7306830;19;130264;-38
2022/10/14 09:00:40;;;;;;;;;;;;;;;20.57;57.32;99448.06;7304987;19;129791;-37
2022/10/14 09:03:12;;;;;;;;;;;;;;;20.52;57.97;99440.66;7301857;19;131277;-37
2022/10/14 09:05:38;;;;;;;;;;;;;;;20.50;57.52;99431.28;7311364;19;129544;-36
2022/10/14 09:08:04;;;;;;;;;;;;;;;20.51;58.04;99433.75;7306097;19;131590;-40
2022/10/14 09:10:34;;;;;;;;;;;;;;;20.45;57.72;99436.09;7309855;19;129388;-38
2022/10/14 09:13:26;;;;;;;;;;;;;;;20.50;58.22;99433.91;7308551;19;129313;-39
2022/10/14 09:15:57;;;;;;;;;;;;;;;20.55;58.19;99435.16;7308732;19;130710;-38
2022/10/14 09:18:46;;;;;;;;;;;;;;;20.71;57.72;99434.59;7304229;19;147720;-38
2022/10/14 09:21:28;;;;;;;;;;;;;;;20.77;57.82;99426.22;7311124;19;131043;-39
2022/10/14 09:23:59;;;;;;;;;;;;;;;20.81;57.39;99430.19;7309172;19;129158;-40
2022/10/14 09:26:27;;;;;;;;;;;;;;;20.80;57.85;99415.47;7310280;19;129292;-40
2022/10/14 09:28:53;;;;;;;;;;;;;;;20.83;57.45;99417.81;7312053;19;130396;-39
2022/10/14 09:31:19;;;;;;;;;;;;;;;20.83;58.07;99427.44;7310822;19;129401;-36
2022/10/14 09:33:44;;;;;;;;;;;;;;;20.82;57.40;99426.63;7308631;19;131066;-38
2022/10/14 09:36:13;;;;;;;;;;;;;;;20.84;57.31;99427.28;7311643;19;130294;-40
2022/10/14 09:38:39;;;;;;;;;;;;;;;20.84;58.08;99421.25;7306363;19;129434;-39
2022/10/14 09:41:09;;;;;;;;;;;;;;;20.74;57.77;99411.63;7312936;19;129609;-38
2022/10/14 09:43:34;;;;;;;;;;;;;;;20.83;58.01;99425.66;7308561;19;129890;-37
2022/10/14 09:46:06;;;;;;;;;;;;;;;20.81;58.07;99426.78;7308426;19;130259;-38
2022/10/14 09:48:37;;;;;;;;;;;;;;;20.79;57.70;99421.69;7309547;19;131185;-37
2022/10/14 09:51:08;;;;;;;;;;;;;;;20.71;57.46;99413.69;7309441;19;129228;-39
2022/10/14 09:53:39;;;;;;;;;;;;;;;20.72;58.26;99405.72;7308411;19;130927;-39
2022/10/14 09:56:06;;;;;;;;;;;;;;;20.83;58.46;99424.81;7307322;19;130173;-39
2022/10/14 09:58:56;;;;;;;;;;;;;;;20.80;57.91;99415.47;7310744;19;129173;-39
2022/10/14 10:01:21;;;;;;;;;;;;;;;20.81;57.74;99418.94;7310632;19;129380;-38
2022/10/14 10:03:48;;;;;;;;;;;;;;;20.80;57.88;99418.09;7310843;19;129136;-38
2022/10/14 10:06:15;;;;;;;;;;;;;;;20.78;57.62;99409.56;7310937;19;131529;-37
2022/10/14 10:08:54;;;;;;;;;;;;;;;20.79;58.41;99405.19;7308765;19;131927;-39
2022/10/14 10:11:38;;;;;;;;;;;;;;;20.79;58.13;99398.16;7304863;19;130923;-37
2022/10/14 10:14:23;;;;;;;;;;;;;;;20.77;57.57;99402.69;7306532;19;129452;-38
2022/10/14 10:17:11;;;;;;;;;;;;;;;20.78;58.11;99399.13;7307790;19;129871;-38
2022/10/14 10:19:47;;;;;;;;;;;;;;;20.78;57.73;99393.88;7308875;19;129379;-39
2022/10/14 10:22:21;;;;;;;;;;;;;;;20.76;57.91;99385.34;7310386;19;129237;-40
2022/10/14 10:24:47;;;;;;;;;;;;;;;20.77;58.21;99392.25;7310258;19;129312;-40
2022/10/14 10:27:34;;;;;;;;;;;;;;;20.77;58.20;99392.25;7310405;19;130524;-38
2022/10/14 10:30:20;;;;;;;;;;;;;;;20.76;58.15;99385.34;7310991;19;131664;-37
2022/10/14 10:32:48;;;;;;;;;;;;;;;20.74;58.64;99384.69;7315353;19;129317;-38
2022/10/14 10:35:21;;;;;;;;;;;;;;;20.72;58.11;99381.38;7318452;19;129730;-40
2022/10/14 10:37:53;;;;;;;;;;;;;;;20.74;58.20;99382.09;7316105;19;129135;-38
2022/10/14 10:40:24;;;;;;;;;;;;;;;20.73;57.71;99375.19;7315252;19;129902;-39
2022/10/14 10:43:06;;;;;;;;;;;;;;;20.76;58.22;99385.34;7316345;19;129685;-38
2022/10/14 10:45:50;;;;;;;;;;;;;;;20.71;58.04;99383.16;7309131;19;131115;-39
2022/10/14 10:48:24;;;;;;;;;;;;;;;20.72;58.03;99384.81;7310420;19;130767;-38
2022/10/14 10:50:54;;;;;;;;;;;;;;;20.74;58.19;99376.84;7307496;19;131117;-35
2022/10/14 10:53:31;;;;;;;;;;;;;;;20.71;58.55;99372.72;7300181;19;130817;-37
2022/10/14 10:56:03;;;;;;;;;;;;;;;20.77;58.27;99376.56;7299976;19;128948;-37
2022/10/14 10:58:53;;;;;;;;;;;;;;;20.80;58.11;99381.50;7302161;19;131079;-39
2022/10/14 11:01:30;;;;;;;;;;;;;;;20.83;58.65;99373.41;7286925;19;130641;-36
2022/10/14 11:03:55;;;;;;;;;;;;;;;20.84;58.44;99364.56;7300477;19;129757;-38
2022/10/14 11:12:13;;;;;;;;;;;;;;;20.88;58.42;99363.34;7286882;19;131746;-37
2022/10/14 11:14:45;;;;;;;;;;;;;;;20.87;58.17;99360.88;7301781;19;129981;-38
2022/10/14 11:17:10;;;;;;;;;;;;;;;20.80;58.35;99344.94;7302405;19;129264;-38
2022/10/14 11:19:38;;;;;;;;;;;;;;;20.87;58.36;99356.47;7300745;19;129387;-36
2022/10/14 11:22:11;;;;;;;;;;;;;;;20.88;58.43;99357.28;7304194;19;130964;-39
2022/10/14 11:24:36;;;;;;;;;;;;;;;20.89;58.50;99351.91;7302178;19;129607;-38
2022/10/14 11:27:07;;;;;;;;;;;;;;;20.88;58.29;99347.66;7309018;19;130452;-35
2022/10/14 11:29:51;;;;;;;;;;;;;;;20.93;57.97;99347.25;7312145;19;130204;-40
2022/10/14 11:32:26;;;;;;;;;;;;;;;20.91;57.89;99349.19;7314653;19;130187;-40
2022/10/14 11:35:01;;;;;;;;;;;;;;;20.88;58.12;99350.28;7315480;19;129558;-40
2022/10/14 11:37:41;;;;;;;;;;;;;;;20.87;58.51;99346.03;7311444;19;130248;-40
2022/10/14 11:40:15;;;;;;;;;;;;;;;20.88;57.92;99347.66;7314860;19;130685;-41
2022/10/14 11:42:56;;;;;;;;;;;;;;;20.89;58.40;99340.66;7311263;19;129994;-38
2022/10/14 11:45:27;;;;;;;;;;;;;;;20.88;57.97;99339.84;7315951;19;130213;-39
2022/10/14 11:47:54;;;;;;;;;;;;;;;20.87;58.53;99339.97;7309570;19;128807;-40
2022/10/14 11:50:19;;;;;;;;;;;;;;;20.88;58.24;99334.59;7312244;19;130167;-40
2022/10/14 11:52:57;;;;;;;;;;;;;;;20.81;58.76;99323.06;7311526;19;129187;-36
2022/10/14 11:55:23;;;;;;;;;;;;;;;20.86;58.02;99335.72;7305799;19;129690;-40
2022/10/14 11:57:53;;;;;;;;;;;;;;;20.91;58.12;99331.69;7314587;19;130291;-37
2022/10/14 12:03:21;;;;;;;;;;;;;;;20.85;58.59;99321.00;7310526;19;129473;-36
2022/10/14 12:06:11;;;;;;;;;;;;;;;20.86;58.64;99320.03;7313153;19;129111;-38
2022/10/14 12:08:45;;;;;;;;;;;;;;;20.84;58.09;99319.34;7313300;19;129237;-39
2022/10/14 12:11:17;;;;;;;;;;;;;;;20.85;58.12;99314.00;7314051;19;129347;-39
2022/10/14 12:13:51;;;;;;;;;;;;;;;20.87;58.83;99317.28;7310252;19;129316;-39
2022/10/14 12:16:17;;;;;;;;;;;;;;;20.90;59.02;99308.31;7311685;19;129234;-39
2022/10/14 12:18:44;;;;;;;;;;;;;;;20.90;58.67;99303.94;7314327;19;129997;-38
2022/10/14 12:21:39;;;;;;;;;;;;;;;20.88;58.32;99305.84;7314154;19;130322;-40
2022/10/14 12:24:07;;;;;;;;;;;;;;;20.86;58.78;99304.38;7309983;19;129901;-39
2022/10/14 12:26:32;;;;;;;;;;;;;;;20.90;58.50;99301.31;7311242;19;129918;-38
2022/10/14 12:28:57;;;;;;;;;;;;;;;20.90;58.29;99288.25;7308186;19;130315;-38
2022/10/14 12:31:34;;;;;;;;;;;;;;;20.83;58.40;99287.16;7312669;19;130203;-39
2022/10/14 12:34:14;;;;;;;;;;;;;;;20.90;58.66;99298.72;7308681;19;129773;-37
2022/10/14 12:36:40;;;;;;;;;;;;;;;20.92;58.20;99303.78;7308311;19;129472;-38
2022/10/14 12:39:18;;;;;;;;;;;;;;;20.91;58.73;99305.56;7313011;19;129167;-39
2022/10/14 12:41:46;;;;;;;;;;;;;;;20.92;58.17;99296.78;7306618;19;129838;-39
2022/10/14 12:44:13;;;;;;;;;;;;;;;20.91;58.17;99295.13;7311825;19;130323;-37
2022/10/14 12:46:46;;;;;;;;;;;;;;;20.91;58.75;99289.88;7307848;19;130198;-38
2022/10/14 12:49:17;;;;;;;;;;;;;;;20.95;58.60;99285.22;7311445;19;129197;-39
2022/10/14 12:51:55;;;;;;;;;;;;;;;20.94;58.42;99288.81;7311420;19;129697;-40